Extreme high temperature From: 16-07-2018 05:00 Until: 19:00 warning for: Extreme high temperature Level: Yellow info button
suomi:
Hellevaroitus: Lähivuorokauden aikana on odotettavissa tukalaa hellettä.

svenska:
Varning för värmebölja: Under det närmaste dygnet är den svåra hettan att vänta.

english:
Heat wave warning: Warm weather is expected during the coming 24 hours. 


Thunder radar more information blitzortung!


Löydät sääaseman tiedot myös:

European Weather Network

Finland Weather Exchange

Weather Underground

AWEKAS



Weather Underground säähistoriasivu

Päivittäin yhteenveto Syyskuu 29, 2017 Yksiköt:  Englantilaiset    Metriset   Molemmat
« Edellinen Päivä
Seuraava Päivä »
Päivittäin Viikoittain Kuukausittain Vuosittain Mukautettu
  Korkea: Matala: Keskiarvo:
Lämpötila: TemperatureC °F 1.8 °F 4.4 °F
Kastepiste: DewpointC °F 1.4 °F 4 °F
Kosteus: Humidity % 96 % 97 %
Tuulen nopeus: WindSpeedKMH mph 0.0 mph 0 mph
Tuulenpuuska: WindSpeedGustKMH mph - -
Tuuli:- - North
Ilmanpaine: PressurehPa in 1035.1 in -
Sade: 0.0 in    
Historical Graphs
 
 
Taulukkotiedot Syyskuu 29, 2017
Aika Lämpötila Kastepiste Ilmanpaine Tuuli Tuulen nopeus Tuulenpuuska Kosteus Sademäärä (tunneittain)
TemperatureC °F DewpointC °F PressurehPa in Calm     Humidity % HourlyPrecipMM in
00:00 2.4 °F 1.9 °F 1040.2 in Calm     96 % 0.0 in
00:15 2.3 °F 1.8 °F 1040.2 in Calm     96 % 0.0 in
00:30 2.2 °F 1.7 °F 1040.2 in Calm     96 % 0.0 in
00:45 2.1 °F 1.5 °F 1040.2 in Calm     96 % 0.0 in
01:00 2.1 °F 1.5 °F 1039.8 in Calm     96 % 0.0 in
01:15 2.0 °F 1.4 °F 1039.8 in Calm     96 % 0.0 in
01:30 1.9 °F 1.5 °F 1039.8 in Calm     97 % 0.0 in
01:45 1.8 °F 1.4 °F 1039.8 in Calm     97 % 0.0 in
02:00 1.9 °F 1.5 °F 1039.8 in Calm     97 % 0.0 in
02:15 1.9 °F 1.5 °F 1039.5 in Calm     97 % 0.0 in
02:30 2.0 °F 1.6 °F 1039.5 in Calm     97 % 0.0 in
02:45 2.1 °F 1.6 °F 1039.5 in Calm     97 % 0.0 in
03:00 2.3 °F 1.9 °F 1039.5 in Calm     97 % 0.0 in
03:15 2.4 °F 2.0 °F 1039.5 in Calm     97 % 0.0 in
03:30 2.5 °F 2.1 °F 1039.5 in Calm     97 % 0.0 in
03:45 2.6 °F 2.2 °F 1039.2 in Calm     97 % 0.0 in
04:00 2.7 °F 2.3 °F 1039.2 in Calm     97 % 0.0 in
04:15 2.8 °F 2.5 °F 1039.2 in Calm     98 % 0.0 in
04:30 2.9 °F 2.5 °F 1039.2 in Calm     97 % 0.0 in
04:45 2.8 °F 2.4 °F 1039.2 in Calm     97 % 0.0 in
05:00 2.7 °F 2.3 °F 1038.8 in Calm     97 % 0.0 in
05:15 2.7 °F 2.2 °F 1038.8 in Calm     97 % 0.0 in
05:30 2.7 °F 2.2 °F 1038.8 in Calm     97 % 0.0 in
05:45 2.6 °F 2.2 °F 1039.2 in Calm     97 % 0.0 in
06:00 2.6 °F 2.1 °F 1039.2 in Calm     97 % 0.0 in
06:30 2.5 °F 2.1 °F 1038.8 in Calm     97 % 0.0 in
06:45 2.5 °F 2.1 °F 1038.8 in Calm     97 % 0.0 in
07:00 2.6 °F 2.3 °F 1038.8 in Calm     98 % 0.0 in
07:15 2.6 °F 2.2 °F 1038.8 in Calm     97 % 0.0 in
07:30 2.7 °F 2.2 °F 1038.8 in Calm     97 % 0.0 in
07:45 2.7 °F 2.2 °F 1038.8 in Calm     97 % 0.0 in
08:00 2.6 °F 2.3 °F 1038.5 in Calm     98 % 0.0 in
08:15 2.6 °F 2.3 °F 1038.5 in Calm     98 % 0.0 in
08:30 2.6 °F 2.3 °F 1038.8 in Calm     98 % 0.0 in
08:45 2.7 °F 2.4 °F 1038.8 in Calm     98 % 0.0 in
09:00 2.7 °F 2.4 °F 1038.8 in Calm     98 % 0.0 in
09:15 2.8 °F 2.5 °F 1038.8 in Calm     98 % 0.0 in
09:30 2.8 °F 2.5 °F 1038.8 in Calm     98 % 0.0 in
09:45 3.0 °F 2.7 °F 1038.8 in Calm     98 % 0.0 in
10:00 3.1 °F 2.8 °F 1038.8 in Calm     98 % 0.0 in
10:15 3.3 °F 3.0 °F 1038.8 in Calm     98 % 0.0 in
10:30 3.6 °F 3.3 °F 1038.8 in Calm     98 % 0.0 in
10:45 3.7 °F 3.4 °F 1038.8 in Calm     98 % 0.0 in
11:00 3.9 °F 3.7 °F 1038.8 in Calm     98 % 0.0 in
11:15 4.2 °F 3.9 °F 1038.8 in Calm     98 % 0.0 in
11:30 4.2 °F 3.9 °F 1038.5 in Calm     98 % 0.0 in
11:45 4.3 °F 4.0 °F 1038.5 in Calm     98 % 0.0 in
12:00 4.5 °F 4.2 °F 1038.5 in Calm     98 % 0.0 in
12:15 4.7 °F 4.4 °F 1038.5 in Calm     98 % 0.0 in
12:30 4.9 °F 4.6 °F 1038.1 in Calm     98 % 0.0 in
12:45 5.1 °F 4.8 °F 1038.1 in Calm     98 % 0.0 in
13:00 5.3 °F 5.0 °F 1038.1 in Calm   4.8 mph 98 % 0.0 in
13:15 5.3 °F 5.0 °F 1038.1 in Calm     98 % 0.0 in
13:30 5.6 °F 5.3 °F 1038.1 in Calm     98 % 0.0 in
13:45 5.8 °F 5.5 °F 1038.1 in Calm   3.2 mph 98 % 0.0 in
14:00 6.1 °F 5.8 °F 1037.8 in Calm   1.6 mph 98 % 0.0 in
14:15 6.3 °F 6.0 °F 1037.8 in Calm     98 % 0.0 in
14:30 6.5 °F 6.2 °F 1037.8 in Calm     98 % 0.0 in
14:45 6.7 °F 6.4 °F 1037.5 in Calm     98 % 0.0 in
15:00 6.7 °F 6.4 °F 1037.5 in Calm   1.6 mph 98 % 0.0 in
15:15 6.8 °F 6.5 °F 1037.1 in Calm     98 % 0.0 in
15:30 6.9 °F 6.7 °F 1037.1 in Calm     98 % 0.0 in
15:45 7.1 °F 6.8 °F 1037.1 in Calm     98 % 0.0 in
16:00 7.0 °F 6.7 °F 1037.1 in Calm     98 % 0.0 in
16:15 7.1 °F 6.8 °F 1037.1 in Calm     98 % 0.0 in
16:30 7.0 °F 6.7 °F 1036.8 in Calm     98 % 0.0 in
16:45 7.0 °F 6.7 °F 1036.8 in Calm   3.2 mph 98 % 0.0 in
17:00 6.9 °F 6.7 °F 1036.5 in Calm   1.6 mph 98 % 0.0 in
17:15 6.8 °F 6.4 °F 1036.5 in Calm   3.2 mph 97 % 0.0 in
17:30 6.9 °F 6.6 °F 1036.5 in Calm     98 % 0.0 in
17:45 6.9 °F 6.6 °F 1036.1 in Calm     98 % 0.0 in
18:00 6.8 °F 6.3 °F 1036.1 in Calm     97 % 0.0 in
18:15 6.7 °F 6.2 °F 1036.1 in Calm   3.2 mph 97 % 0.0 in
18:30 6.6 °F 6.1 °F 1036.1 in Calm     97 % 0.0 in
18:45 6.4 °F 6.0 °F 1036.1 in Calm   3.2 mph 97 % 0.0 in
19:00 6.4 °F 6.0 °F 1036.1 in Calm     97 % 0.0 in
19:15 6.3 °F 6.0 °F 1036.1 in Calm     98 % 0.0 in
19:30 6.3 °F 6.0 °F 1036.1 in Calm     98 % 0.0 in
19:45 6.2 °F 5.9 °F 1036.1 in Calm     98 % 0.0 in
20:00 6.2 °F 5.9 °F 1036.1 in Calm     98 % 0.0 in
20:15 6.1 °F 5.8 °F 1036.1 in Calm     98 % 0.0 in
20:30 6.1 °F 5.8 °F 1035.8 in Calm     98 % 0.0 in
20:45 6.1 °F 5.8 °F 1035.8 in Calm     98 % 0.0 in
21:00 5.9 °F 5.7 °F 1035.4 in Calm   1.6 mph 98 % 0.0 in
21:15 5.9 °F 5.6 °F 1035.4 in Calm     98 % 0.0 in
21:30 5.9 °F 5.6 °F 1035.4 in Calm     98 % 0.0 in
21:45 5.8 °F 5.5 °F 1035.4 in Calm     98 % 0.0 in
22:00 5.8 °F 5.5 °F 1035.4 in Calm     98 % 0.0 in
22:15 5.8 °F 5.5 °F 1035.4 in Calm     98 % 0.0 in
22:30 5.7 °F 5.4 °F 1035.4 in Calm     98 % 0.0 in
22:45 5.6 °F 5.3 °F 1035.4 in Calm     98 % 0.0 in
23:00 5.5 °F 5.2 °F 1035.4 in Calm     98 % 0.0 in
23:15 5.4 °F 5.2 °F 1035.1 in Calm     98 % 0.0 in
23:30 5.4 °F 5.1 °F 1035.1 in Calm     98 % 0.0 in
23:45 5.3 °F 5.0 °F 1035.1 in Calm     98 % 0.0 in
Esan sääasema
Terveisin Weather Underground - 2.75 mb

Alkuperäinen skripti  Jim McMurry - jmcmurry@mwt.net Sovitettu myös templatelle  Wim van der Kuil - Leuven-Template.eu

Laitteet joita käytämme:

Sääasema
Davis VP2

Sääasemaohjelma
Cumulus

Sääaseman tietokone
Asus EeePC

Palveluntarjoaja
Suncomet

Davis VP2

Cumulus

Asus EeePC

Suncomet